sensor_id;sensor_type;location;lat;lon;timestamp;P1;durP1;ratioP1;P2;durP2;ratioP2
19919;SDS011;10122;50.074;19.920;2022-12-19T00:03:29;61.63;;;18.60;;
19919;SDS011;10122;50.074;19.920;2022-12-19T00:05:55;62.30;;;20.17;;
19919;SDS011;10122;50.074;19.920;2022-12-19T00:08:20;58.57;;;19.40;;
19919;SDS011;10122;50.074;19.920;2022-12-19T00:10:56;58.00;;;17.00;;
19919;SDS011;10122;50.074;19.920;2022-12-19T00:13:23;65.80;;;20.37;;
19919;SDS011;10122;50.074;19.920;2022-12-19T00:15:49;58.97;;;19.17;;
19919;SDS011;10122;50.074;19.920;2022-12-19T00:18:15;58.90;;;19.33;;
19919;SDS011;10122;50.074;19.920;2022-12-19T00:20:41;62.13;;;19.60;;
19919;SDS011;10122;50.074;19.920;2022-12-19T00:23:06;51.77;;;17.63;;
19919;SDS011;10122;50.074;19.920;2022-12-19T00:25:32;52.43;;;16.70;;
19919;SDS011;10122;50.074;19.920;2022-12-19T00:27:58;56.70;;;17.83;;
19919;SDS011;10122;50.074;19.920;2022-12-19T00:30:23;49.40;;;16.87;;
19919;SDS011;10122;50.074;19.920;2022-12-19T00:32:49;53.60;;;18.77;;
19919;SDS011;10122;50.074;19.920;2022-12-19T00:35:15;62.17;;;20.27;;
19919;SDS011;10122;50.074;19.920;2022-12-19T00:37:41;65.37;;;19.73;;
19919;SDS011;10122;50.074;19.920;2022-12-19T00:40:07;63.17;;;19.20;;
19919;SDS011;10122;50.074;19.920;2022-12-19T00:42:33;58.80;;;18.47;;
19919;SDS011;10122;50.074;19.920;2022-12-19T00:44:58;60.00;;;19.80;;
19919;SDS011;10122;50.074;19.920;2022-12-19T00:47:24;63.23;;;20.97;;
19919;SDS011;10122;50.074;19.920;2022-12-19T00:49:51;59.10;;;19.87;;
19919;SDS011;10122;50.074;19.920;2022-12-19T00:52:17;62.57;;;20.57;;
19919;SDS011;10122;50.074;19.920;2022-12-19T00:54:42;61.73;;;20.80;;
19919;SDS011;10122;50.074;19.920;2022-12-19T00:57:08;68.87;;;21.30;;
19919;SDS011;10122;50.074;19.920;2022-12-19T00:59:33;64.90;;;21.60;;
19919;SDS011;10122;50.074;19.920;2022-12-19T01:01:59;66.23;;;20.97;;
19919;SDS011;10122;50.074;19.920;2022-12-19T01:04:25;63.20;;;21.07;;
19919;SDS011;10122;50.074;19.920;2022-12-19T01:06:50;57.47;;;17.97;;
19919;SDS011;10122;50.074;19.920;2022-12-19T01:09:16;61.27;;;20.03;;
19919;SDS011;10122;50.074;19.920;2022-12-19T01:11:42;58.80;;;19.03;;
19919;SDS011;10122;50.074;19.920;2022-12-19T01:14:27;63.57;;;19.27;;
19919;SDS011;10122;50.074;19.920;2022-12-19T01:16:52;64.17;;;20.73;;
19919;SDS011;10122;50.074;19.920;2022-12-19T01:19:18;66.17;;;20.23;;
19919;SDS011;10122;50.074;19.920;2022-12-19T01:21:44;70.80;;;21.87;;
19919;SDS011;10122;50.074;19.920;2022-12-19T01:24:10;57.83;;;18.30;;
19919;SDS011;10122;50.074;19.920;2022-12-19T01:26:36;66.37;;;21.70;;
19919;SDS011;10122;50.074;19.920;2022-12-19T01:29:01;63.73;;;21.20;;
19919;SDS011;10122;50.074;19.920;2022-12-19T01:31:28;61.03;;;20.57;;
19919;SDS011;10122;50.074;19.920;2022-12-19T01:33:54;67.80;;;21.10;;
19919;SDS011;10122;50.074;19.920;2022-12-19T01:36:19;67.97;;;22.23;;
19919;SDS011;10122;50.074;19.920;2022-12-19T01:38:45;43.03;;;14.53;;
19919;SDS011;10122;50.074;19.920;2022-12-19T01:41:11;62.80;;;20.67;;
19919;SDS011;10122;50.074;19.920;2022-12-19T01:43:56;69.07;;;23.70;;
19919;SDS011;10122;50.074;19.920;2022-12-19T01:46:25;69.77;;;21.60;;
19919;SDS011;10122;50.074;19.920;2022-12-19T01:49:05;70.33;;;22.37;;
19919;SDS011;10122;50.074;19.920;2022-12-19T01:51:44;38.80;;;14.23;;
19919;SDS011;10122;50.074;19.920;2022-12-19T01:54:14;63.93;;;23.07;;
19919;SDS011;10122;50.074;19.920;2022-12-19T01:56:45;68.83;;;21.43;;
19919;SDS011;10122;50.074;19.920;2022-12-19T01:59:19;68.90;;;24.77;;
19919;SDS011;10122;50.074;19.920;2022-12-19T02:01:50;74.03;;;24.40;;
19919;SDS011;10122;50.074;19.920;2022-12-19T02:04:20;69.13;;;21.47;;
19919;SDS011;10122;50.074;19.920;2022-12-19T02:06:48;61.80;;;20.07;;
19919;SDS011;10122;50.074;19.920;2022-12-19T02:09:15;70.77;;;23.47;;
19919;SDS011;10122;50.074;19.920;2022-12-19T02:11:41;38.80;;;14.43;;
19919;SDS011;10122;50.074;19.920;2022-12-19T02:14:07;39.07;;;12.07;;
19919;SDS011;10122;50.074;19.920;2022-12-19T02:16:37;39.43;;;14.17;;
19919;SDS011;10122;50.074;19.920;2022-12-19T02:22:07;64.93;;;23.13;;
19919;SDS011;10122;50.074;19.920;2022-12-19T02:24:59;65.37;;;21.87;;
19919;SDS011;10122;50.074;19.920;2022-12-19T02:27:53;67.47;;;22.43;;
19919;SDS011;10122;50.074;19.920;2022-12-19T02:30:36;67.80;;;22.17;;
19919;SDS011;10122;50.074;19.920;2022-12-19T02:33:07;66.93;;;21.97;;
19919;SDS011;10122;50.074;19.920;2022-12-19T02:35:52;69.10;;;22.13;;
19919;SDS011;10122;50.074;19.920;2022-12-19T02:38:30;66.40;;;22.40;;
19919;SDS011;10122;50.074;19.920;2022-12-19T02:41:04;65.47;;;21.17;;
19919;SDS011;10122;50.074;19.920;2022-12-19T02:44:08;59.87;;;19.97;;
19919;SDS011;10122;50.074;19.920;2022-12-19T02:46:58;53.47;;;18.10;;
19919;SDS011;10122;50.074;19.920;2022-12-19T02:49:30;59.43;;;17.90;;
19919;SDS011;10122;50.074;19.920;2022-12-19T02:54:43;52.97;;;14.43;;
19919;SDS011;10122;50.074;19.920;2022-12-19T03:08:02;68.63;;;20.80;;
19919;SDS011;10122;50.074;19.920;2022-12-19T03:10:51;55.07;;;20.00;;
19919;SDS011;10122;50.074;19.920;2022-12-19T03:15:55;62.97;;;20.13;;
19919;SDS011;10122;50.074;19.920;2022-12-19T03:18:22;57.60;;;20.33;;
19919;SDS011;10122;50.074;19.920;2022-12-19T03:20:49;50.80;;;16.37;;
19919;SDS011;10122;50.074;19.920;2022-12-19T03:23:23;56.73;;;18.57;;
19919;SDS011;10122;50.074;19.920;2022-12-19T03:25:50;57.47;;;19.83;;
19919;SDS011;10122;50.074;19.920;2022-12-19T03:28:20;54.73;;;18.13;;
19919;SDS011;10122;50.074;19.920;2022-12-19T03:30:50;36.77;;;12.30;;
19919;SDS011;10122;50.074;19.920;2022-12-19T03:33:16;56.83;;;18.47;;
19919;SDS011;10122;50.074;19.920;2022-12-19T03:35:44;56.37;;;18.27;;
19919;SDS011;10122;50.074;19.920;2022-12-19T03:38:11;65.27;;;19.43;;
19919;SDS011;10122;50.074;19.920;2022-12-19T03:40:40;62.43;;;20.37;;
19919;SDS011;10122;50.074;19.920;2022-12-19T03:43:09;60.63;;;19.63;;
19919;SDS011;10122;50.074;19.920;2022-12-19T03:48:42;66.17;;;20.80;;
19919;SDS011;10122;50.074;19.920;2022-12-19T03:53:59;60.50;;;20.63;;
19919;SDS011;10122;50.074;19.920;2022-12-19T03:59:00;60.03;;;20.13;;
19919;SDS011;10122;50.074;19.920;2022-12-19T04:01:40;64.77;;;20.40;;
19919;SDS011;10122;50.074;19.920;2022-12-19T04:04:07;63.23;;;19.30;;
19919;SDS011;10122;50.074;19.920;2022-12-19T04:06:33;59.50;;;20.70;;
19919;SDS011;10122;50.074;19.920;2022-12-19T04:08:59;65.97;;;20.13;;
19919;SDS011;10122;50.074;19.920;2022-12-19T04:11:26;61.63;;;19.80;;
19919;SDS011;10122;50.074;19.920;2022-12-19T04:14:02;62.30;;;19.90;;
19919;SDS011;10122;50.074;19.920;2022-12-19T04:16:50;56.43;;;19.60;;
19919;SDS011;10122;50.074;19.920;2022-12-19T04:19:47;58.93;;;19.97;;
19919;SDS011;10122;50.074;19.920;2022-12-19T04:22:24;57.57;;;19.97;;
19919;SDS011;10122;50.074;19.920;2022-12-19T04:24:59;57.60;;;18.93;;
19919;SDS011;10122;50.074;19.920;2022-12-19T04:27:27;58.60;;;19.50;;
19919;SDS011;10122;50.074;19.920;2022-12-19T04:29:54;57.20;;;18.57;;
19919;SDS011;10122;50.074;19.920;2022-12-19T04:32:23;50.63;;;17.63;;
19919;SDS011;10122;50.074;19.920;2022-12-19T04:34:50;61.87;;;20.37;;
19919;SDS011;10122;50.074;19.920;2022-12-19T04:37:16;62.83;;;21.03;;
19919;SDS011;10122;50.074;19.920;2022-12-19T04:39:42;47.07;;;16.00;;
19919;SDS011;10122;50.074;19.920;2022-12-19T04:42:08;46.73;;;17.40;;
19919;SDS011;10122;50.074;19.920;2022-12-19T04:44:33;59.50;;;20.63;;
19919;SDS011;10122;50.074;19.920;2022-12-19T04:46:59;63.03;;;19.83;;
19919;SDS011;10122;50.074;19.920;2022-12-19T04:49:25;60.10;;;18.43;;
19919;SDS011;10122;50.074;19.920;2022-12-19T04:51:50;44.83;;;12.97;;
19919;SDS011;10122;50.074;19.920;2022-12-19T04:54:16;51.63;;;15.57;;
19919;SDS011;10122;50.074;19.920;2022-12-19T04:56:42;54.63;;;18.77;;
19919;SDS011;10122;50.074;19.920;2022-12-19T04:59:08;48.13;;;16.50;;
19919;SDS011;10122;50.074;19.920;2022-12-19T05:01:34;53.07;;;16.97;;
19919;SDS011;10122;50.074;19.920;2022-12-19T05:04:00;57.67;;;18.60;;
19919;SDS011;10122;50.074;19.920;2022-12-19T05:06:25;55.70;;;17.97;;
19919;SDS011;10122;50.074;19.920;2022-12-19T05:08:51;34.57;;;12.67;;
19919;SDS011;10122;50.074;19.920;2022-12-19T05:11:17;52.90;;;17.53;;
19919;SDS011;10122;50.074;19.920;2022-12-19T05:13:42;55.53;;;18.73;;
19919;SDS011;10122;50.074;19.920;2022-12-19T05:16:09;50.57;;;18.20;;
19919;SDS011;10122;50.074;19.920;2022-12-19T05:18:36;55.13;;;18.03;;
19919;SDS011;10122;50.074;19.920;2022-12-19T05:21:03;50.37;;;17.93;;
19919;SDS011;10122;50.074;19.920;2022-12-19T05:23:29;53.70;;;17.30;;
19919;SDS011;10122;50.074;19.920;2022-12-19T05:28:39;33.07;;;12.03;;
19919;SDS011;10122;50.074;19.920;2022-12-19T05:31:06;53.93;;;18.33;;
19919;SDS011;10122;50.074;19.920;2022-12-19T05:33:36;60.10;;;19.10;;
19919;SDS011;10122;50.074;19.920;2022-12-19T05:36:02;51.87;;;17.53;;
19919;SDS011;10122;50.074;19.920;2022-12-19T05:38:29;52.17;;;17.80;;
19919;SDS011;10122;50.074;19.920;2022-12-19T05:40:55;53.67;;;18.13;;
19919;SDS011;10122;50.074;19.920;2022-12-19T05:43:21;51.43;;;16.40;;
19919;SDS011;10122;50.074;19.920;2022-12-19T05:45:47;50.47;;;17.90;;
19919;SDS011;10122;50.074;19.920;2022-12-19T05:48:13;51.67;;;16.73;;
19919;SDS011;10122;50.074;19.920;2022-12-19T05:50:38;52.00;;;18.10;;
19919;SDS011;10122;50.074;19.920;2022-12-19T05:53:04;57.03;;;17.10;;
19919;SDS011;10122;50.074;19.920;2022-12-19T05:55:30;54.27;;;17.60;;
19919;SDS011;10122;50.074;19.920;2022-12-19T05:57:55;57.03;;;18.80;;
19919;SDS011;10122;50.074;19.920;2022-12-19T06:00:21;37.93;;;12.13;;
19919;SDS011;10122;50.074;19.920;2022-12-19T06:02:47;55.50;;;18.40;;
19919;SDS011;10122;50.074;19.920;2022-12-19T06:05:13;56.23;;;18.50;;
19919;SDS011;10122;50.074;19.920;2022-12-19T06:07:38;61.50;;;19.83;;
19919;SDS011;10122;50.074;19.920;2022-12-19T06:10:04;55.03;;;18.40;;
19919;SDS011;10122;50.074;19.920;2022-12-19T06:12:31;55.47;;;17.43;;
19919;SDS011;10122;50.074;19.920;2022-12-19T06:14:56;56.83;;;18.80;;
19919;SDS011;10122;50.074;19.920;2022-12-19T06:17:22;50.77;;;17.53;;
19919;SDS011;10122;50.074;19.920;2022-12-19T06:19:48;51.63;;;16.67;;
19919;SDS011;10122;50.074;19.920;2022-12-19T06:22:14;58.50;;;18.13;;
19919;SDS011;10122;50.074;19.920;2022-12-19T06:24:39;57.57;;;18.77;;
19919;SDS011;10122;50.074;19.920;2022-12-19T06:27:05;35.63;;;11.67;;
19919;SDS011;10122;50.074;19.920;2022-12-19T06:29:31;47.67;;;15.77;;
19919;SDS011;10122;50.074;19.920;2022-12-19T06:31:56;58.93;;;19.60;;
19919;SDS011;10122;50.074;19.920;2022-12-19T06:34:22;51.13;;;15.50;;
19919;SDS011;10122;50.074;19.920;2022-12-19T06:36:48;50.37;;;15.87;;
19919;SDS011;10122;50.074;19.920;2022-12-19T06:39:14;39.13;;;11.17;;
19919;SDS011;10122;50.074;19.920;2022-12-19T06:41:40;49.63;;;14.97;;
19919;SDS011;10122;50.074;19.920;2022-12-19T06:44:25;61.73;;;19.37;;
19919;SDS011;10122;50.074;19.920;2022-12-19T06:46:51;62.63;;;20.77;;
19919;SDS011;10122;50.074;19.920;2022-12-19T06:49:17;63.40;;;19.53;;
19919;SDS011;10122;50.074;19.920;2022-12-19T06:51:43;55.53;;;18.57;;
19919;SDS011;10122;50.074;19.920;2022-12-19T06:54:10;57.63;;;20.37;;
19919;SDS011;10122;50.074;19.920;2022-12-19T06:56:36;63.67;;;20.40;;
19919;SDS011;10122;50.074;19.920;2022-12-19T06:59:03;13.50;;;5.93;;
19919;SDS011;10122;50.074;19.920;2022-12-19T07:04:11;55.47;;;18.47;;
19919;SDS011;10122;50.074;19.920;2022-12-19T07:06:42;62.13;;;20.33;;
19919;SDS011;10122;50.074;19.920;2022-12-19T07:09:08;56.70;;;20.07;;
19919;SDS011;10122;50.074;19.920;2022-12-19T07:11:33;52.13;;;19.63;;
19919;SDS011;10122;50.074;19.920;2022-12-19T07:13:59;60.23;;;20.27;;
19919;SDS011;10122;50.074;19.920;2022-12-19T07:16:25;65.50;;;21.30;;
19919;SDS011;10122;50.074;19.920;2022-12-19T07:18:52;53.47;;;18.73;;
19919;SDS011;10122;50.074;19.920;2022-12-19T07:21:18;60.10;;;19.83;;
19919;SDS011;10122;50.074;19.920;2022-12-19T07:23:44;62.07;;;20.10;;
19919;SDS011;10122;50.074;19.920;2022-12-19T07:26:09;62.67;;;20.63;;
19919;SDS011;10122;50.074;19.920;2022-12-19T07:28:35;64.47;;;21.80;;
19919;SDS011;10122;50.074;19.920;2022-12-19T07:31:02;63.43;;;20.90;;
19919;SDS011;10122;50.074;19.920;2022-12-19T07:33:28;64.80;;;20.47;;
19919;SDS011;10122;50.074;19.920;2022-12-19T07:35:54;60.03;;;19.00;;
19919;SDS011;10122;50.074;19.920;2022-12-19T07:38:19;61.67;;;19.50;;
19919;SDS011;10122;50.074;19.920;2022-12-19T07:40:45;29.37;;;10.47;;
19919;SDS011;10122;50.074;19.920;2022-12-19T07:43:11;57.20;;;18.87;;
19919;SDS011;10122;50.074;19.920;2022-12-19T07:45:37;63.87;;;21.47;;
19919;SDS011;10122;50.074;19.920;2022-12-19T07:48:03;71.53;;;22.30;;
19919;SDS011;10122;50.074;19.920;2022-12-19T07:50:30;61.13;;;19.97;;
19919;SDS011;10122;50.074;19.920;2022-12-19T07:52:56;56.87;;;19.53;;
19919;SDS011;10122;50.074;19.920;2022-12-19T07:55:23;65.63;;;21.40;;
19919;SDS011;10122;50.074;19.920;2022-12-19T07:57:48;57.27;;;19.37;;
19919;SDS011;10122;50.074;19.920;2022-12-19T08:00:14;65.30;;;20.87;;
19919;SDS011;10122;50.074;19.920;2022-12-19T08:02:40;56.70;;;18.33;;
19919;SDS011;10122;50.074;19.920;2022-12-19T08:05:06;52.63;;;17.40;;
19919;SDS011;10122;50.074;19.920;2022-12-19T08:07:32;52.50;;;16.57;;
19919;SDS011;10122;50.074;19.920;2022-12-19T08:09:58;54.27;;;18.57;;
19919;SDS011;10122;50.074;19.920;2022-12-19T08:12:24;44.80;;;15.80;;
19919;SDS011;10122;50.074;19.920;2022-12-19T08:14:51;54.13;;;17.50;;
19919;SDS011;10122;50.074;19.920;2022-12-19T08:17:16;54.40;;;16.67;;
19919;SDS011;10122;50.074;19.920;2022-12-19T08:19:42;56.27;;;20.47;;
19919;SDS011;10122;50.074;19.920;2022-12-19T08:22:08;53.30;;;18.73;;
19919;SDS011;10122;50.074;19.920;2022-12-19T08:24:34;61.80;;;20.77;;
19919;SDS011;10122;50.074;19.920;2022-12-19T08:27:00;21.50;;;7.80;;
19919;SDS011;10122;50.074;19.920;2022-12-19T08:29:26;55.67;;;18.53;;
19919;SDS011;10122;50.074;19.920;2022-12-19T08:31:52;57.87;;;20.17;;
19919;SDS011;10122;50.074;19.920;2022-12-19T08:34:17;56.00;;;20.20;;
19919;SDS011;10122;50.074;19.920;2022-12-19T08:36:43;51.07;;;16.33;;
19919;SDS011;10122;50.074;19.920;2022-12-19T08:39:09;60.77;;;19.70;;
19919;SDS011;10122;50.074;19.920;2022-12-19T08:41:35;60.40;;;19.70;;
19919;SDS011;10122;50.074;19.920;2022-12-19T08:44:01;63.03;;;21.47;;
19919;SDS011;10122;50.074;19.920;2022-12-19T08:46:26;60.20;;;19.93;;
19919;SDS011;10122;50.074;19.920;2022-12-19T08:48:52;54.80;;;18.03;;
19919;SDS011;10122;50.074;19.920;2022-12-19T08:51:18;56.00;;;16.67;;
19919;SDS011;10122;50.074;19.920;2022-12-19T08:53:44;55.93;;;20.43;;
19919;SDS011;10122;50.074;19.920;2022-12-19T08:56:18;59.73;;;21.33;;
19919;SDS011;10122;50.074;19.920;2022-12-19T08:58:45;57.90;;;21.23;;
19919;SDS011;10122;50.074;19.920;2022-12-19T09:01:15;63.53;;;20.43;;
19919;SDS011;10122;50.074;19.920;2022-12-19T09:03:45;56.37;;;20.77;;
19919;SDS011;10122;50.074;19.920;2022-12-19T09:06:12;56.60;;;19.53;;
19919;SDS011;10122;50.074;19.920;2022-12-19T09:08:38;55.60;;;19.07;;
19919;SDS011;10122;50.074;19.920;2022-12-19T09:11:06;62.43;;;21.20;;
19919;SDS011;10122;50.074;19.920;2022-12-19T09:13:34;60.40;;;21.27;;
19919;SDS011;10122;50.074;19.920;2022-12-19T09:16:01;59.90;;;22.57;;
19919;SDS011;10122;50.074;19.920;2022-12-19T09:18:28;57.00;;;20.57;;
19919;SDS011;10122;50.074;19.920;2022-12-19T09:20:55;59.90;;;21.03;;
19919;SDS011;10122;50.074;19.920;2022-12-19T09:23:22;57.33;;;21.63;;
19919;SDS011;10122;50.074;19.920;2022-12-19T09:25:51;53.13;;;19.80;;
19919;SDS011;10122;50.074;19.920;2022-12-19T09:28:17;62.60;;;21.50;;
19919;SDS011;10122;50.074;19.920;2022-12-19T09:30:43;62.87;;;21.70;;
19919;SDS011;10122;50.074;19.920;2022-12-19T09:33:09;52.97;;;19.77;;
19919;SDS011;10122;50.074;19.920;2022-12-19T09:35:35;60.57;;;21.60;;
19919;SDS011;10122;50.074;19.920;2022-12-19T09:38:01;51.20;;;15.80;;
19919;SDS011;10122;50.074;19.920;2022-12-19T09:40:28;61.97;;;21.87;;
19919;SDS011;10122;50.074;19.920;2022-12-19T09:48:22;64.80;;;22.37;;
19919;SDS011;10122;50.074;19.920;2022-12-19T09:50:51;68.03;;;21.53;;
19919;SDS011;10122;50.074;19.920;2022-12-19T09:56:31;63.93;;;22.27;;
19919;SDS011;10122;50.074;19.920;2022-12-19T09:59:02;57.63;;;20.77;;
19919;SDS011;10122;50.074;19.920;2022-12-19T10:01:40;58.57;;;22.10;;
19919;SDS011;10122;50.074;19.920;2022-12-19T10:04:19;59.03;;;23.30;;
19919;SDS011;10122;50.074;19.920;2022-12-19T10:06:49;59.63;;;21.60;;
19919;SDS011;10122;50.074;19.920;2022-12-19T10:09:16;59.90;;;22.10;;
19919;SDS011;10122;50.074;19.920;2022-12-19T10:19:53;62.50;;;23.97;;
19919;SDS011;10122;50.074;19.920;2022-12-19T10:22:42;64.53;;;23.53;;
19919;SDS011;10122;50.074;19.920;2022-12-19T10:28:12;69.53;;;23.17;;
19919;SDS011;10122;50.074;19.920;2022-12-19T10:31:11;60.37;;;23.07;;
19919;SDS011;10122;50.074;19.920;2022-12-19T10:33:44;67.03;;;22.50;;
19919;SDS011;10122;50.074;19.920;2022-12-19T10:36:30;70.67;;;24.20;;
19919;SDS011;10122;50.074;19.920;2022-12-19T10:41:56;57.93;;;21.83;;
19919;SDS011;10122;50.074;19.920;2022-12-19T10:44:30;66.83;;;22.30;;
19919;SDS011;10122;50.074;19.920;2022-12-19T10:47:02;70.43;;;25.17;;
19919;SDS011;10122;50.074;19.920;2022-12-19T10:49:28;60.67;;;21.20;;
19919;SDS011;10122;50.074;19.920;2022-12-19T10:54:36;69.83;;;23.97;;
19919;SDS011;10122;50.074;19.920;2022-12-19T10:59:56;65.10;;;23.80;;
19919;SDS011;10122;50.074;19.920;2022-12-19T11:02:43;67.40;;;23.80;;
19919;SDS011;10122;50.074;19.920;2022-12-19T11:05:26;69.23;;;24.83;;
19919;SDS011;10122;50.074;19.920;2022-12-19T11:10:37;68.03;;;26.07;;
19919;SDS011;10122;50.074;19.920;2022-12-19T11:13:22;68.73;;;25.27;;
19919;SDS011;10122;50.074;19.920;2022-12-19T11:15:57;65.93;;;24.53;;
19919;SDS011;10122;50.074;19.920;2022-12-19T11:18:24;65.43;;;24.07;;
19919;SDS011;10122;50.074;19.920;2022-12-19T11:21:19;67.20;;;25.10;;
19919;SDS011;10122;50.074;19.920;2022-12-19T11:24:05;67.23;;;24.47;;
19919;SDS011;10122;50.074;19.920;2022-12-19T11:26:40;68.33;;;23.83;;
19919;SDS011;10122;50.074;19.920;2022-12-19T11:32:07;69.70;;;24.70;;
19919;SDS011;10122;50.074;19.920;2022-12-19T11:35:13;69.23;;;25.70;;
19919;SDS011;10122;50.074;19.920;2022-12-19T11:37:41;63.93;;;23.33;;
19919;SDS011;10122;50.074;19.920;2022-12-19T11:43:05;71.03;;;26.43;;
19919;SDS011;10122;50.074;19.920;2022-12-19T11:45:48;69.63;;;26.07;;
19919;SDS011;10122;50.074;19.920;2022-12-19T11:48:42;72.77;;;26.27;;
19919;SDS011;10122;50.074;19.920;2022-12-19T11:54:27;66.70;;;25.53;;
19919;SDS011;10122;50.074;19.920;2022-12-19T11:56:57;68.83;;;24.40;;
19919;SDS011;10122;50.074;19.920;2022-12-19T11:59:35;72.77;;;26.63;;
19919;SDS011;10122;50.074;19.920;2022-12-19T12:07:34;69.07;;;26.43;;
19919;SDS011;10122;50.074;19.920;2022-12-19T12:10:17;68.20;;;24.97;;
19919;SDS011;10122;50.074;19.920;2022-12-19T12:21:22;69.17;;;26.13;;
19919;SDS011;10122;50.074;19.920;2022-12-19T12:24:02;76.20;;;26.43;;
19919;SDS011;10122;50.074;19.920;2022-12-19T12:26:49;72.37;;;26.77;;
19919;SDS011;10122;50.074;19.920;2022-12-19T12:29:22;71.90;;;27.73;;
19919;SDS011;10122;50.074;19.920;2022-12-19T12:45:47;69.77;;;26.60;;
19919;SDS011;10122;50.074;19.920;2022-12-19T12:48:26;72.70;;;26.67;;
19919;SDS011;10122;50.074;19.920;2022-12-19T12:51:02;70.43;;;25.13;;
19919;SDS011;10122;50.074;19.920;2022-12-19T12:53:31;78.43;;;27.20;;
19919;SDS011;10122;50.074;19.920;2022-12-19T12:56:01;71.93;;;26.97;;
19919;SDS011;10122;50.074;19.920;2022-12-19T13:01:28;67.13;;;25.37;;
19919;SDS011;10122;50.074;19.920;2022-12-19T13:06:37;72.53;;;26.53;;
19919;SDS011;10122;50.074;19.920;2022-12-19T13:17:03;64.03;;;25.37;;
19919;SDS011;10122;50.074;19.920;2022-12-19T13:19:34;74.47;;;27.33;;
19919;SDS011;10122;50.074;19.920;2022-12-19T13:22:17;65.97;;;24.50;;
19919;SDS011;10122;50.074;19.920;2022-12-19T13:25:00;69.37;;;25.93;;
19919;SDS011;10122;50.074;19.920;2022-12-19T13:27:32;73.40;;;26.87;;
19919;SDS011;10122;50.074;19.920;2022-12-19T13:35:05;73.10;;;26.27;;
19919;SDS011;10122;50.074;19.920;2022-12-19T13:45:52;71.60;;;25.77;;
19919;SDS011;10122;50.074;19.920;2022-12-19T13:48:40;71.90;;;25.77;;
19919;SDS011;10122;50.074;19.920;2022-12-19T13:51:10;71.43;;;26.17;;
19919;SDS011;10122;50.074;19.920;2022-12-19T13:53:37;72.40;;;25.50;;
19919;SDS011;10122;50.074;19.920;2022-12-19T13:56:05;64.87;;;23.17;;
19919;SDS011;10122;50.074;19.920;2022-12-19T13:58:47;66.17;;;25.93;;
19919;SDS011;10122;50.074;19.920;2022-12-19T14:01:25;71.83;;;26.93;;
19919;SDS011;10122;50.074;19.920;2022-12-19T14:03:54;75.10;;;26.63;;
19919;SDS011;10122;50.074;19.920;2022-12-19T14:06:26;69.77;;;26.13;;
19919;SDS011;10122;50.074;19.920;2022-12-19T14:08:58;76.03;;;27.20;;
19919;SDS011;10122;50.074;19.920;2022-12-19T14:11:28;68.07;;;24.93;;
19919;SDS011;10122;50.074;19.920;2022-12-19T14:13:57;77.77;;;27.30;;
19919;SDS011;10122;50.074;19.920;2022-12-19T14:16:44;75.30;;;27.63;;
19919;SDS011;10122;50.074;19.920;2022-12-19T14:19:17;73.73;;;27.47;;
19919;SDS011;10122;50.074;19.920;2022-12-19T14:21:48;71.90;;;27.50;;
19919;SDS011;10122;50.074;19.920;2022-12-19T14:24:16;74.33;;;25.53;;
19919;SDS011;10122;50.074;19.920;2022-12-19T14:26:44;67.47;;;23.27;;
19919;SDS011;10122;50.074;19.920;2022-12-19T14:29:22;67.07;;;26.27;;
19919;SDS011;10122;50.074;19.920;2022-12-19T14:31:54;68.10;;;23.33;;
19919;SDS011;10122;50.074;19.920;2022-12-19T14:34:21;78.50;;;27.17;;
19919;SDS011;10122;50.074;19.920;2022-12-19T14:36:52;71.83;;;27.50;;
19919;SDS011;10122;50.074;19.920;2022-12-19T14:39:21;77.87;;;26.00;;
19919;SDS011;10122;50.074;19.920;2022-12-19T14:42:00;77.03;;;26.80;;
19919;SDS011;10122;50.074;19.920;2022-12-19T14:47:39;84.40;;;27.33;;
19919;SDS011;10122;50.074;19.920;2022-12-19T14:55:42;81.03;;;28.13;;
19919;SDS011;10122;50.074;19.920;2022-12-19T14:58:16;75.23;;;27.13;;
19919;SDS011;10122;50.074;19.920;2022-12-19T15:00:48;70.07;;;24.80;;
19919;SDS011;10122;50.074;19.920;2022-12-19T15:03:34;66.03;;;25.80;;
19919;SDS011;10122;50.074;19.920;2022-12-19T15:06:14;76.10;;;25.87;;
19919;SDS011;10122;50.074;19.920;2022-12-19T15:08:42;63.43;;;22.37;;
19919;SDS011;10122;50.074;19.920;2022-12-19T15:11:20;76.00;;;26.07;;
19919;SDS011;10122;50.074;19.920;2022-12-19T15:14:22;71.57;;;26.37;;
19919;SDS011;10122;50.074;19.920;2022-12-19T15:17:02;73.37;;;25.57;;
19919;SDS011;10122;50.074;19.920;2022-12-19T15:19:41;79.53;;;27.80;;
19919;SDS011;10122;50.074;19.920;2022-12-19T15:22:06;70.20;;;23.20;;
19919;SDS011;10122;50.074;19.920;2022-12-19T15:24:32;70.97;;;25.83;;
19919;SDS011;10122;50.074;19.920;2022-12-19T15:26:58;81.77;;;27.67;;
19919;SDS011;10122;50.074;19.920;2022-12-19T15:29:25;79.50;;;26.53;;
19919;SDS011;10122;50.074;19.920;2022-12-19T15:31:51;76.03;;;27.53;;
19919;SDS011;10122;50.074;19.920;2022-12-19T15:34:23;77.73;;;27.50;;
19919;SDS011;10122;50.074;19.920;2022-12-19T15:36:51;80.40;;;28.53;;
19919;SDS011;10122;50.074;19.920;2022-12-19T15:39:17;77.33;;;26.67;;
19919;SDS011;10122;50.074;19.920;2022-12-19T15:41:44;80.80;;;28.87;;
19919;SDS011;10122;50.074;19.920;2022-12-19T15:44:15;80.93;;;27.57;;
19919;SDS011;10122;50.074;19.920;2022-12-19T15:46:48;83.10;;;28.87;;
19919;SDS011;10122;50.074;19.920;2022-12-19T15:49:14;86.23;;;30.17;;
19919;SDS011;10122;50.074;19.920;2022-12-19T15:51:41;84.80;;;29.57;;
19919;SDS011;10122;50.074;19.920;2022-12-19T15:54:07;74.37;;;26.70;;
19919;SDS011;10122;50.074;19.920;2022-12-19T15:56:34;83.53;;;28.90;;
19919;SDS011;10122;50.074;19.920;2022-12-19T15:59:02;82.90;;;27.23;;
19919;SDS011;10122;50.074;19.920;2022-12-19T16:01:30;78.77;;;27.37;;
19919;SDS011;10122;50.074;19.920;2022-12-19T16:03:57;83.50;;;28.37;;
19919;SDS011;10122;50.074;19.920;2022-12-19T16:06:24;82.47;;;28.03;;
19919;SDS011;10122;50.074;19.920;2022-12-19T16:08:51;76.37;;;28.57;;
19919;SDS011;10122;50.074;19.920;2022-12-19T16:11:18;75.80;;;28.40;;
19919;SDS011;10122;50.074;19.920;2022-12-19T16:13:50;84.77;;;30.87;;
19919;SDS011;10122;50.074;19.920;2022-12-19T16:16:19;86.97;;;31.50;;
19919;SDS011;10122;50.074;19.920;2022-12-19T16:18:45;80.70;;;28.30;;
19919;SDS011;10122;50.074;19.920;2022-12-19T16:21:18;82.20;;;30.30;;
19919;SDS011;10122;50.074;19.920;2022-12-19T16:23:46;80.80;;;30.03;;
19919;SDS011;10122;50.074;19.920;2022-12-19T16:26:47;86.80;;;31.10;;
19919;SDS011;10122;50.074;19.920;2022-12-19T16:29:05;85.97;;;29.73;;
19919;SDS011;10122;50.074;19.920;2022-12-19T16:31:43;87.00;;;30.73;;
19919;SDS011;10122;50.074;19.920;2022-12-19T16:34:16;78.93;;;30.77;;
19919;SDS011;10122;50.074;19.920;2022-12-19T16:36:43;84.17;;;30.00;;
19919;SDS011;10122;50.074;19.920;2022-12-19T16:39:10;87.77;;;30.27;;
19919;SDS011;10122;50.074;19.920;2022-12-19T16:41:36;79.23;;;29.43;;
19919;SDS011;10122;50.074;19.920;2022-12-19T16:44:02;78.57;;;30.87;;